Terminal Aerodrome Forecast
Issued by NWS

Home | Current Version | Previous Version | Graphics & Text | Print | Product List | Glossary On
Versions: 1 2 3 4 5 6 7 8 9 10 11 12 13 14 15 16 17 18 19 20 21 22 23
000
FTUS43 KLSX 271100
TAFSUS
TAF
KSUS 271140Z 2712/2812 33009KT P6SM OVC018
     FM271600 31010KT P6SM OVC025
     FM272200 31009KT P6SM SCT025 BKN250
     FM280100 00000KT P6SM BKN100=

USA.gov is the U.S. government's official web portal to all federal, state and local government web resources and services.